Elliot Chaparral Reserve, California Weather observations

Data are for 10 minute period ending at time listed.
 Day   Time   Solar   Ave.   Ave.  Ave.  Vector  Max.   Baro.   Total    
  of    of     Rad.   Air    Rel.  Wind   Wind   Wind  Press.  Precip.   
Year   Day            Temp.  Hum.  Speed  Dir.   Gust                    
2015   (PST)  Kw/m2    F      %     mph   deg.    mph    mb.     in.     
-------------------------------------------------------------------------
 107    0:00   0.00   60.0    27    6.3    81     8.6   988.5    0.00 
 107    0:10   0.00   60.5    25    6.4    83     8.6   988.4    0.00 
 107    0:20   0.00   60.7    25    5.5    95     8.9   988.3    0.00 
 107    0:30   0.00   60.6    24    6.5    88     9.4   988.3    0.00 
 107    0:40   0.00   60.7    23    6.5    87     8.9   988.2    0.00 
 107    0:50   0.00   61.0    21    6.4    96     8.8   988.1    0.00 
 107    1:00   0.00   60.8    20    5.8    93     8.6   988.0    0.00 
 107    1:10   0.00   60.4    21    5.1    88     9.1   988.0    0.00 
 107    1:20   0.00   59.8    21    4.5    80     5.9   988.0    0.00 
 107    1:30   0.00   59.7    21    4.2    86     6.6   988.0    0.00 
 107    1:40   0.00   59.0    22    4.1    81     5.5   988.0    0.00 
 107    1:50   0.00   58.8    22    3.7    80     5.8   987.9    0.00 
 107    2:00   0.00   59.0    22    3.7    73     4.9   987.7    0.00 
 107    2:10   0.00   59.1    22    3.4    88     5.0   987.7    0.00 
 107    2:20   0.00   58.9    22    3.5    87     4.7   987.6    0.00 
 107    2:30   0.00   58.7    22    4.2    80     5.8   987.6    0.00 
 107    2:40   0.00   58.8    21    4.6    75     6.1   987.6    0.00 
 107    2:50   0.00   58.5    22    4.6    74     5.9   987.5    0.00 
 107    3:00   0.00   58.8    21    4.8    85     6.5   987.4    0.00 
 107    3:10   0.00   58.8    21    5.3    84     7.5   987.4    0.00 
 107    3:20   0.00   58.7    20    4.2    74     5.9   987.4    0.00 
 107    3:30   0.00   59.4    19    3.2    68     4.6   987.4    0.00 
 107    3:40   0.00   59.7    19    4.2    79     5.4   987.3    0.00 
 107    3:50   0.00   59.4    19    3.9    63     4.8   987.3    0.00 
 107    4:00   0.00   60.3    18    4.1    56     5.2   987.1    0.00 
 107    4:10   0.00   59.8    18    4.4    58     5.0   987.1    0.00 
 107    4:20   0.00   59.8    18    4.6    55     5.5   987.1    0.00 
 107    4:30   0.00   59.5    18    4.7    54     5.5   987.1    0.00 
 107    4:40   0.00   60.0    18    3.7    52     4.4   987.2    0.00 
 107    4:50   0.00   59.3    18    4.4    57     5.3   987.2    0.00 
 107    5:00   0.00   58.5    18    4.4    61     5.1   987.2    0.00 
 107    5:10   0.00   58.3    19    4.3    65     5.0   987.3    0.00 
 107    5:20   0.00   58.5    18    4.0    58     5.0   987.3    0.00 
 107    5:30   0.00   58.6    18    4.2    60     5.0   987.4    0.00 
 107    5:40   0.02   58.9    18    5.0    66     6.4   987.5    0.00 
 107    5:50   0.05   60.2    18    4.2    61     5.1   987.6    0.00 
 107    6:00   0.08   60.5    18    4.4    66     5.5   987.6    0.00 
 107    6:10   0.10   61.7    18    4.8    66     5.6   987.7    0.00 
 107    6:20   0.14   62.6    17    5.0    68     6.4   987.7    0.00 
 107    6:30   0.17   63.5    16    5.2    64     6.3   987.9    0.00 
 107    6:40   0.20   64.2    16    4.5    97     6.2   988.0    0.00 
 107    6:50   0.24   65.8    15    3.5    92     5.3   988.1    0.00 
 107    7:00   0.28   67.0    14    2.8    86     5.0   988.2    0.00 
 107    7:10   0.31   69.5    15    0.7   330     1.7   988.2    0.00 
 107    7:20   0.35   70.5    12    1.3    13     2.6   988.2    0.00 
 107    7:30   0.39   71.0    12    1.2   340     2.8   988.3    0.00 
 107    7:40   0.42   71.5    12    2.2   341     3.9   988.3    0.00 
 107    7:50   0.46   71.5    12    3.3   346     5.0   988.3    0.00 
 107    8:00   0.49   72.2    12    3.3   354     5.1   988.3    0.00 
 107    8:10   0.52   72.2    12    3.1   357     4.8   988.2    0.00 
 107    8:20   0.56   73.7    12    2.8   340     5.3   988.2    0.00 
 107    8:30   0.59   74.2    12    3.9   314     6.8   988.2    0.00 
 107    8:40   0.62   74.1    12    3.4   312     6.6   988.2    0.00 
 107    8:50   0.65   74.9    12    6.1   312    10.9   988.1    0.00 
 107    9:00   0.68   75.2    12    6.8   324    11.3   988.0    0.00 
 107    9:10   0.71   75.2    12    8.9   306    12.8   987.9    0.00 
 107    9:20   0.73   74.7    12    8.3   305    12.8   987.9    0.00 
 107    9:30   0.76   76.1    12    7.1   312    11.0   987.8    0.00 
 107    9:40   0.78   76.9    11    8.2   329    13.2   987.8    0.00 
 107    9:50   0.81   76.9    11    8.0   331    12.2   987.7    0.00 
 107   10:00   0.82   77.7    11    8.1   298    12.6   987.6    0.00 
 107   10:10   0.84   78.4    11    9.9   310    15.3   987.6    0.00 
 107   10:20   0.86   78.7    11   11.2   315    15.2   987.4    0.00 
 107   10:30   0.88   79.0    11   11.0   323    15.9   987.4    0.00 
 107   10:40   0.89   78.9    11   10.9   309    16.7   987.4    0.00 
 107   10:50   0.90   79.5    12   11.1   312    18.1   987.3    0.00 
 107   11:00   0.91   78.7    12   15.9   297    21.7   987.1    0.00 
 107   11:10   0.92   77.6    12   16.6   296    21.9   987.0    0.00 
 107   11:20   0.93   77.1    12   16.9   307    21.3   986.9    0.00 
 107   11:30   0.93   78.2    11   15.8   300    21.9   986.9    0.00 
 107   11:40   0.94   77.2    12   16.9   313    21.9   986.9    0.00 
 107   11:50   0.90   76.6    12   17.0   313    21.3   986.9    0.00 
 107   12:00   0.93   76.6    13   15.7   320    21.5   986.8    0.00 
 107   12:10   0.93   77.0    15   17.1   317    24.0   986.7    0.00 
 107   12:20   0.93   76.7    16   18.0   326    22.6   986.6    0.00 
 107   12:30   0.92   76.6    19   18.3   304    23.6   986.5    0.00 
 107   12:40   0.91   76.4    20   18.0   311    25.9   986.4    0.00 
 107   12:50   0.90   77.3    19   16.7   315    22.4   986.3    0.00 
 107   13:00   0.89   76.1    21   20.0   300    26.1   986.2    0.00 
 107   13:10   0.88   76.3    19   19.1   304    24.9   986.1    0.00 
 107   13:20   0.86   75.5    16   21.8   321    29.2   986.0    0.00 
 107   13:30   0.84   74.9    17   22.0   320    29.5   986.0    0.00 
 107   13:40   0.82   74.6    17   22.1   319    30.2   986.0    0.00 
 107   13:50   0.80   74.2    18   22.5   314    29.1   986.0    0.00 
 107   14:00   0.78   74.2    18   22.1   317    31.9   985.9    0.00 
 107   14:10   0.76   74.1    17   23.8   315    33.0   985.8    0.00 
 107   14:20   0.74   73.8    18   24.2   311    30.8   985.7    0.00 
 107   14:30   0.71   73.5    19   22.1   312    30.8   985.6    0.00 
 107   14:40   0.68   73.4    20   22.8   316    30.0   985.5    0.00 
 107   14:50   0.65   73.3    20   22.7   310    31.2   985.5    0.00 
 107   15:00   0.62   72.7    19   23.9   316    31.2   985.5    0.00 
 107   15:10   0.59   73.3    20   19.6   314    30.8   985.6    0.00 
 107   15:20   0.56   72.6    21   21.4   322    29.0   985.6    0.00 
 107   15:30   0.53   72.8    23   19.0   314    25.8   985.7    0.00 
 107   15:40   0.50   72.6    24   17.6   312    25.7   985.7    0.00 
 107   15:50   0.47   72.6    23   20.2   309    26.7   985.6    0.00 
 107   16:00   0.43   72.5    24   17.9   322    24.3   985.7    0.00 
 107   16:10   0.39   72.5    25   18.4   319    24.0   985.7    0.00 
 107   16:20   0.36   71.7    25   19.7   332    26.8   985.6    0.00 
 107   16:30   0.32   72.2    25   16.4   329    23.1   985.7    0.00 
 107   16:40   0.29   71.8    27   15.8   327    23.3   985.7    0.00 
 107   16:50   0.25   71.6    28   14.9   320    20.2   985.8    0.00 
 107   17:00   0.22   71.1    30   13.2   321    19.6   985.9    0.00 
 107   17:10   0.18   71.8    29   11.2   327    18.9   986.0    0.00 
 107   17:20   0.15   70.5    30   13.0   329    18.3   986.1    0.00 
 107   17:30   0.12   70.4    30   11.4   333    17.1   986.3    0.00 
 107   17:40   0.09   69.9    32    8.9   323    14.8   986.4    0.00 
 107   17:50   0.07   69.9    30    7.1   330    11.7   986.5    0.00 
 107   18:00   0.04   69.1    28    8.1   333    13.9   986.6    0.00 
 107   18:10   0.02   68.1    29   10.2   332    17.8   986.7    0.00 

Return to Elliot Chaparral Reserve graphs page.


Western Regional Climate Center,wrcc@dri.edu